Flight Track Log - Related Links

Times and Time Zones

All times are in EDT time to prevent confusion due to time zone crossing. See the N98XL flight status page for this flight to view local times or setup timezone preferences in your user account.

Time Position Orientation Groundspeed Altitude Reporting Facility
EDT Latitude Longitude Course Direction KTS MPH feet Rate Location/Type
Sat 07:08:17 PM 27.2706 -100.2472 75° East 489 563 33,000  Level Houston Center
Sat 07:09:19 PM 27.3056 -100.1047 75° East 480 552 29,900 -3,171 Descending Houston Center
Sat 07:10:20 PM 27.3417 -99.9606 74° East 479 551 26,500 -3,317 Descending Houston Center
Sat 07:11:22 PM 27.3753 -99.8211 75° East 466 536 23,100 -3,317 Descending Houston Center
Sat 07:12:23 PM 27.4089 -99.6894 74° East 441 507 19,700 -3,317 Descending Houston Center
Sat 07:13:25 PM 27.4411 -99.5694 73° East 412 474 16,300 -3,463 Descending Houston Center
Sat 07:14:26 PM 27.5206 -99.4936 40° Northeast 381 438 12,600 -3,805 Descending Houston Center
Sat 07:15:28 PM 27.6306 -99.5192 348° North 346 398 8,500 -3,512 Descending Houston Center
Sat 07:16:29 PM 27.7036 -99.5467 342° North 309 356 5,400 -2,459 Descending Houston Center
Sat 07:17:30 PM 27.7636 -99.5714 340° North 263 303 3,500 -1,171 Descending Houston Center
Sat 07:18:32 PM 27.8069 -99.5469 27° Northeast 221 254 3,000 -244 Descending Houston Center
Sat 07:19:33 PM 27.8158 -99.4883 80° East 200 230 3,000  Level Houston Center
Sat 07:20:35 PM 27.7750 -99.4589 147° Southeast 186 214 3,000 -390 Level Houston Center
Sat 07:21:36 PM 27.7225 -99.4542 175° South 187 215 2,200 -295 Descending Houston Center
Sat 07:22:37 PM 27.6750 -99.4569 183° South 180 207 2,400 -195 Climbing Houston Center
Sat 07:23:39 PM 27.6267 -99.4594 183° South 176 203 1,800 -683 Descending Houston Center
Sat 07:24:40 PM 27.5744 -99.4614 182° South 167 192 1,000 -639 Descending Houston Center
Sat 07:25:41 PM 27.5439 -99.4633 183° South 139 160 500 -492 Descending Houston Center
Sat 07:27:00 PM 27.5442 -99.4616 154° Southeast  Level Estimated
Sat 07:34:00 PM 27.5442 -99.4616 154° Southeast  Level Estimated
Sat 07:35:00 PM 27.5442 -99.4616 154° Southeast  Level Estimated
Sat 07:36:00 PM 27.5442 -99.4616 154° Southeast  Level Estimated
Sat 07:37:00 PM 27.5442 -99.4616 154° Southeast  Level Estimated

Login

Don't have an account? Register now (free) for customized features, flight alerts, and more!